Time;durP1;ratioP1;P1;durP2;ratioP2;P2;SDS_P1;SDS_P2;PMS_P1;PMS_P2;Temp;Humidity;BMP_temperature;BMP_pressure;BME280_temperature;BME280_humidity;BME280_pressure;Samples;Min_cycle;Max_cycle;Signal;HPM_P1;HPM_P2
2022/07/23 00:01:18;;;;;;;0.10;0.10;;;;;;;;;;6197457;23;20051;-87
2022/07/23 00:03:47;;;;;;;0.10;0.10;;;;;;;;;;6218418;23;20023;-87
2022/07/23 00:06:13;;;;;;;0.10;0.10;;;;;;;;;;6193622;23;20438;-88
2022/07/23 00:08:39;;;;;;;0.10;0.10;;;;;;;;;;6193337;23;20503;-88
2022/07/23 00:11:05;;;;;;;0.10;0.10;;;;;;;;;;6203058;23;20012;-87
2022/07/23 00:13:31;;;;;;;0.10;0.10;;;;;;;;;;6193662;23;20008;-88
2022/07/23 00:15:57;;;;;;;0.10;0.10;;;;;;;;;;6193444;23;20460;-88
2022/07/23 00:18:23;;;;;;;0.10;0.10;;;;;;;;;;6193577;23;20008;-88
2022/07/23 00:20:49;;;;;;;0.10;0.10;;;;;;;;;;6193364;23;20020;-88
2022/07/23 00:23:15;;;;;;;0.10;0.10;;;;;;;;;;6193379;23;20016;-88
2022/07/23 00:25:41;;;;;;;0.10;0.10;;;;;;;;;;6193155;23;20082;-88
2022/07/23 00:28:07;;;;;;;0.10;0.10;;;;;;;;;;6192923;23;20016;-89
2022/07/23 00:30:33;;;;;;;0.10;0.10;;;;;;;;;;6192826;23;20016;-87
2022/07/23 00:33:00;;;;;;;0.10;0.10;;;;;;;;;;6217902;23;20456;-87
2022/07/23 00:35:27;;;;;;;0.10;0.10;;;;;;;;;;6193306;23;20031;-87
2022/07/23 00:37:54;;;;;;;0.10;0.10;;;;;;;;;;6193259;23;20087;-88
2022/07/23 00:40:20;;;;;;;0.10;0.10;;;;;;;;;;6192607;23;20423;-89
2022/07/23 00:42:46;;;;;;;0.20;0.20;;;;;;;;;;6192801;23;20014;-88
2022/07/23 00:45:12;;;;;;;0.10;0.10;;;;;;;;;;6194595;23;20058;-88
2022/07/23 00:47:38;;;;;;;0.10;0.10;;;;;;;;;;6193152;23;20016;-88
2022/07/23 00:50:05;;;;;;;0.10;0.10;;;;;;;;;;6217858;23;20012;-88
2022/07/23 00:52:31;;;;;;;0.10;0.10;;;;;;;;;;6193051;23;20066;-89
2022/07/23 00:54:57;;;;;;;0.10;0.10;;;;;;;;;;6193305;23;20008;-90
2022/07/23 00:57:23;;;;;;;0.20;0.20;;;;;;;;;;6192948;23;20042;-90
2022/07/23 00:59:49;;;;;;;0.10;0.10;;;;;;;;;;6192667;23;20008;-90
2022/07/23 01:02:15;;;;;;;0.10;0.10;;;;;;;;;;6192570;23;20098;-88
2022/07/23 01:04:40;;;;;;;0.10;0.10;;;;;;;;;;6217565;23;20362;-88
2022/07/23 01:07:07;;;;;;;0.10;0.10;;;;;;;;;;6192669;23;20012;-88
2022/07/23 01:09:33;;;;;;;0.15;0.15;;;;;;;;;;6217698;23;20016;-89
2022/07/23 01:11:59;;;;;;;0.10;0.10;;;;;;;;;;6192709;23;20012;-90
2022/07/23 01:14:25;;;;;;;0.10;0.10;;;;;;;;;;6192630;23;20059;-90
2022/07/23 01:16:51;;;;;;;0.10;0.10;;;;;;;;;;6194017;23;20012;-89
2022/07/23 01:19:17;;;;;;;0.10;0.10;;;;;;;;;;6194569;23;20004;-89
2022/07/23 01:21:44;;;;;;;0.10;0.10;;;;;;;;;;6219841;23;20027;-89
2022/07/23 01:24:10;;;;;;;0.10;0.10;;;;;;;;;;6194472;23;20012;-89
2022/07/23 01:26:37;;;;;;;0.10;0.10;;;;;;;;;;6194572;23;20098;-90
2022/07/23 01:29:03;;;;;;;0.10;0.10;;;;;;;;;;6219588;23;20459;-91
2022/07/23 01:31:30;;;;;;;0.10;0.10;;;;;;;;;;6194574;23;20019;-91
2022/07/23 01:33:56;;;;;;;0.10;0.10;;;;;;;;;;6194613;23;20312;-91
2022/07/23 01:36:22;;;;;;;0.10;0.10;;;;;;;;;;6194452;23;20008;-91
2022/07/23 01:38:48;;;;;;;0.10;0.10;;;;;;;;;;6194310;23;20019;-90
2022/07/23 01:41:14;;;;;;;0.10;0.10;;;;;;;;;;6194400;23;20342;-90
2022/07/23 01:43:40;;;;;;;0.10;0.10;;;;;;;;;;6194410;23;20473;-89
2022/07/23 01:46:06;;;;;;;0.10;0.10;;;;;;;;;;6194395;23;20018;-90
2022/07/23 01:48:32;;;;;;;0.10;0.10;;;;;;;;;;6194687;23;20015;-90
2022/07/23 01:50:58;;;;;;;0.10;0.10;;;;;;;;;;6194228;23;20056;-90
2022/07/23 01:53:24;;;;;;;0.10;0.10;;;;;;;;;;6194354;23;20015;-91
2022/07/23 01:55:50;;;;;;;0.10;0.10;;;;;;;;;;6219068;23;20095;-90
2022/07/23 01:58:16;;;;;;;0.10;0.10;;;;;;;;;;6194588;23;20059;-90
2022/07/23 02:00:42;;;;;;;0.10;0.10;;;;;;;;;;6194126;23;20083;-90
2022/07/23 02:03:08;;;;;;;0.10;0.10;;;;;;;;;;6194322;23;20016;-90
2022/07/23 02:05:34;;;;;;;0.10;0.10;;;;;;;;;;6195881;23;20019;-90
2022/07/23 02:08:00;;;;;;;0.10;0.10;;;;;;;;;;6193702;23;20399;-89
2022/07/23 02:10:26;;;;;;;0.10;0.10;;;;;;;;;;6193947;23;20062;-90
2022/07/23 02:12:52;;;;;;;0.10;0.10;;;;;;;;;;6194216;23;20092;-90
2022/07/23 02:15:18;;;;;;;0.10;0.10;;;;;;;;;;6194166;23;20043;-90
2022/07/23 02:17:44;;;;;;;0.10;0.10;;;;;;;;;;6194144;23;20012;-89
2022/07/23 02:20:10;;;;;;;0.10;0.10;;;;;;;;;;6218880;23;20247;-90
2022/07/23 02:22:36;;;;;;;0.10;0.10;;;;;;;;;;6218994;23;20367;-90
2022/07/23 02:25:03;;;;;;;0.10;0.10;;;;;;;;;;6197270;23;20012;-90
2022/07/23 02:27:29;;;;;;;0.10;0.10;;;;;;;;;;6193497;23;20077;-90
2022/07/23 02:29:55;;;;;;;0.10;0.10;;;;;;;;;;6193876;23;20040;-90
2022/07/23 02:32:21;;;;;;;0.10;0.10;;;;;;;;;;6193843;23;20389;-90
2022/07/23 02:34:48;;;;;;;0.10;0.10;;;;;;;;;;6194598;23;20010;-90
2022/07/23 02:37:14;;;;;;;0.10;0.10;;;;;;;;;;6193892;23;20087;-91
2022/07/23 02:39:40;;;;;;;0.10;0.10;;;;;;;;;;6193402;23;20020;-91
2022/07/23 02:42:06;;;;;;;0.10;0.10;;;;;;;;;;6193988;23;20353;-90
2022/07/23 02:44:32;;;;;;;0.10;0.10;;;;;;;;;;6193929;23;20023;-91
2022/07/23 02:46:58;;;;;;;0.10;0.10;;;;;;;;;;6193756;23;20012;-90
2022/07/23 02:49:24;;;;;;;0.10;0.10;;;;;;;;;;6193655;23;20346;-89
2022/07/23 02:51:50;;;;;;;0.10;0.10;;;;;;;;;;6193585;23;20051;-90
2022/07/23 02:54:16;;;;;;;0.10;0.10;;;;;;;;;;6193511;23;20004;-89
2022/07/23 02:56:42;;;;;;;0.10;0.10;;;;;;;;;;6193568;23;20012;-89
2022/07/23 02:59:08;;;;;;;0.10;0.10;;;;;;;;;;6218576;23;20012;-89
2022/07/23 03:01:34;;;;;;;0.10;0.10;;;;;;;;;;6193754;23;20012;-89
2022/07/23 03:04:00;;;;;;;0.10;0.10;;;;;;;;;;6193505;23;20075;-89
2022/07/23 03:06:26;;;;;;;0.10;0.10;;;;;;;;;;6218474;23;20012;-89
2022/07/23 03:08:52;;;;;;;0.10;0.10;;;;;;;;;;6193473;23;20016;-89
2022/07/23 03:11:18;;;;;;;0.10;0.10;;;;;;;;;;6218314;23;20474;-90
2022/07/23 03:13:44;;;;;;;0.10;0.10;;;;;;;;;;6218316;23;20078;-89
2022/07/23 03:16:10;;;;;;;0.10;0.10;;;;;;;;;;6193657;23;20023;-89
2022/07/23 03:18:36;;;;;;;0.17;0.17;;;;;;;;;;6193495;23;20012;-89
2022/07/23 03:21:02;;;;;;;0.10;0.10;;;;;;;;;;6193429;23;20350;-88
2022/07/23 03:23:28;;;;;;;0.10;0.10;;;;;;;;;;6193371;23;20341;-88
2022/07/23 03:25:54;;;;;;;0.10;0.10;;;;;;;;;;6193400;23;20044;-88
2022/07/23 03:28:20;;;;;;;0.10;0.10;;;;;;;;;;6193166;23;20380;-89
2022/07/23 03:30:46;;;;;;;0.10;0.10;;;;;;;;;;6218108;23;20012;-89
2022/07/23 03:33:13;;;;;;;0.10;0.10;;;;;;;;;;6193277;23;20012;-89
2022/07/23 03:35:38;;;;;;;0.10;0.10;;;;;;;;;;6193343;23;20016;-89
2022/07/23 03:38:04;;;;;;;0.10;0.10;;;;;;;;;;6193285;23;20058;-89
2022/07/23 03:40:30;;;;;;;0.10;0.10;;;;;;;;;;6193100;23;20016;-89
2022/07/23 03:42:56;;;;;;;0.10;0.10;;;;;;;;;;6193306;23;20031;-88
2022/07/23 03:45:22;;;;;;;0.10;0.10;;;;;;;;;;6193334;23;20012;-89
2022/07/23 03:47:48;;;;;;;0.10;0.10;;;;;;;;;;6193225;23;20111;-88
2022/07/23 03:50:14;;;;;;;0.10;0.10;;;;;;;;;;6193145;23;20016;-88
2022/07/23 03:52:40;;;;;;;0.10;0.10;;;;;;;;;;6193409;23;20027;-89
2022/07/23 03:55:06;;;;;;;0.10;0.10;;;;;;;;;;6218210;23;20012;-90
2022/07/23 03:57:32;;;;;;;0.10;0.10;;;;;;;;;;6193145;23;20339;-90
2022/07/23 03:59:58;;;;;;;0.10;0.10;;;;;;;;;;6193048;23;20449;-90
2022/07/23 04:02:24;;;;;;;0.10;0.10;;;;;;;;;;6192556;23;20012;-89
2022/07/23 04:04:51;;;;;;;0.10;0.10;;;;;;;;;;6193125;23;20061;-89
2022/07/23 04:07:17;;;;;;;0.10;0.10;;;;;;;;;;6193172;23;20023;-90
2022/07/23 04:09:43;;;;;;;0.10;0.10;;;;;;;;;;6193160;23;20012;-89
2022/07/23 04:12:09;;;;;;;0.10;0.10;;;;;;;;;;6193215;23;20020;-90
2022/07/23 04:14:35;;;;;;;0.10;0.10;;;;;;;;;;6192990;23;20015;-91
2022/07/23 04:17:01;;;;;;;0.10;0.10;;;;;;;;;;6193001;23;20019;-88
2022/07/23 04:19:27;;;;;;;0.10;0.10;;;;;;;;;;6193229;23;20016;-88
2022/07/23 04:21:53;;;;;;;0.10;0.10;;;;;;;;;;6192909;23;20020;-88
2022/07/23 04:24:19;;;;;;;0.10;0.10;;;;;;;;;;6218271;23;20066;-88
2022/07/23 04:26:45;;;;;;;0.10;0.10;;;;;;;;;;6193117;23;20421;-88
2022/07/23 04:29:11;;;;;;;0.10;0.10;;;;;;;;;;6193253;23;20062;-88
2022/07/23 04:31:37;;;;;;;0.10;0.10;;;;;;;;;;6192891;23;20016;-88
2022/07/23 04:34:04;;;;;;;0.10;0.10;;;;;;;;;;6192919;23;20087;-87
2022/07/23 04:36:29;;;;;;;0.10;0.10;;;;;;;;;;6192862;23;20016;-87
2022/07/23 04:38:55;;;;;;;0.10;0.10;;;;;;;;;;6192791;23;20009;-88
2022/07/23 04:41:21;;;;;;;0.10;0.10;;;;;;;;;;6192683;23;20020;-88
2022/07/23 04:43:47;;;;;;;0.10;0.10;;;;;;;;;;6192801;23;20020;-87
2022/07/23 04:46:13;;;;;;;0.10;0.10;;;;;;;;;;6193002;23;20016;-87
2022/07/23 04:48:39;;;;;;;0.10;0.10;;;;;;;;;;6217621;23;20016;-89
2022/07/23 04:51:06;;;;;;;0.10;0.10;;;;;;;;;;6193442;23;20105;-86
2022/07/23 04:53:32;;;;;;;0.10;0.10;;;;;;;;;;6194762;23;20012;-87
2022/07/23 04:55:58;;;;;;;0.10;0.10;;;;;;;;;;6195156;23;20015;-87
2022/07/23 04:58:24;;;;;;;0.10;0.10;;;;;;;;;;6195144;23;20023;-86
2022/07/23 05:00:50;;;;;;;0.10;0.10;;;;;;;;;;6194759;23;20027;-87
2022/07/23 05:03:16;;;;;;;0.10;0.10;;;;;;;;;;6194777;23;20012;-87
2022/07/23 05:05:42;;;;;;;0.10;0.10;;;;;;;;;;6194794;23;20090;-86
2022/07/23 05:08:07;;;;;;;0.10;0.10;;;;;;;;;;6194671;23;20385;-85
2022/07/23 05:10:34;;;;;;;0.10;0.10;;;;;;;;;;6219364;23;20016;-85
2022/07/23 05:12:59;;;;;;;0.10;0.10;;;;;;;;;;6194682;23;20454;-85
2022/07/23 05:15:26;;;;;;;0.10;0.10;;;;;;;;;;6219558;23;20086;-85
2022/07/23 05:17:51;;;;;;;0.10;0.10;;;;;;;;;;6194577;23;20012;-85
2022/07/23 05:20:17;;;;;;;0.10;0.10;;;;;;;;;;6194536;23;20012;-84
2022/07/23 05:22:43;;;;;;;0.10;0.10;;;;;;;;;;6194761;23;20453;-85
2022/07/23 05:25:09;;;;;;;0.10;0.10;;;;;;;;;;6219454;23;20029;-84
2022/07/23 05:27:35;;;;;;;0.10;0.10;;;;;;;;;;6194504;23;20469;-85
2022/07/23 05:30:01;;;;;;;0.20;0.20;;;;;;;;;;6194522;23;20020;-85
2022/07/23 05:32:27;;;;;;;0.10;0.10;;;;;;;;;;6194364;23;20341;-85
2022/07/23 05:34:53;;;;;;;0.10;0.10;;;;;;;;;;6194425;23;20087;-85
2022/07/23 05:37:19;;;;;;;0.10;0.10;;;;;;;;;;6194496;23;20008;-84
2022/07/23 05:39:45;;;;;;;0.10;0.10;;;;;;;;;;6219183;23;20074;-84
2022/07/23 05:42:11;;;;;;;0.10;0.10;;;;;;;;;;6194503;23;20027;-84
2022/07/23 05:44:37;;;;;;;0.28;0.28;;;;;;;;;;6219252;23;20435;-84
2022/07/23 05:47:03;;;;;;;0.10;0.10;;;;;;;;;;6219062;23;20019;-85
2022/07/23 05:49:29;;;;;;;0.10;0.10;;;;;;;;;;6219173;23;20043;-84
2022/07/23 05:51:55;;;;;;;0.10;0.10;;;;;;;;;;6194238;23;20062;-84
2022/07/23 05:54:21;;;;;;;0.10;0.10;;;;;;;;;;6219114;23;20008;-85
2022/07/23 05:56:47;;;;;;;0.10;0.10;;;;;;;;;;6219509;23;20031;-84
2022/07/23 05:59:14;;;;;;;0.10;0.10;;;;;;;;;;6244268;23;20066;-85
2022/07/23 06:01:40;;;;;;;0.10;0.10;;;;;;;;;;6218807;23;20388;-85
2022/07/23 06:04:06;;;;;;;0.10;0.10;;;;;;;;;;6194221;23;20095;-85
2022/07/23 06:06:32;;;;;;;0.10;0.10;;;;;;;;;;6194199;23;20026;-85
2022/07/23 06:08:58;;;;;;;0.10;0.10;;;;;;;;;;6218876;23;20016;-85
2022/07/23 06:11:24;;;;;;;0.10;0.10;;;;;;;;;;6194117;23;20043;-85
2022/07/23 06:13:50;;;;;;;0.10;0.10;;;;;;;;;;6219140;23;20373;-85
2022/07/23 06:16:16;;;;;;;0.10;0.10;;;;;;;;;;6219042;23;20106;-86
2022/07/23 06:18:42;;;;;;;0.10;0.10;;;;;;;;;;6193931;23;20088;-86
2022/07/23 06:21:08;;;;;;;0.10;0.10;;;;;;;;;;6218951;23;20070;-86
2022/07/23 06:23:34;;;;;;;0.10;0.10;;;;;;;;;;6194001;23;20509;-86
2022/07/23 06:26:00;;;;;;;0.10;0.10;;;;;;;;;;6193964;23;20052;-86
2022/07/23 06:28:26;;;;;;;0.10;0.10;;;;;;;;;;6193923;23;20349;-86
2022/07/23 06:30:52;;;;;;;0.10;0.10;;;;;;;;;;6193749;23;20016;-85
2022/07/23 06:33:18;;;;;;;0.10;0.10;;;;;;;;;;6219073;23;20014;-86
2022/07/23 06:35:44;;;;;;;0.17;0.17;;;;;;;;;;6218858;23;20012;-86
2022/07/23 06:38:10;;;;;;;0.10;0.10;;;;;;;;;;6193791;23;20012;-86
2022/07/23 06:40:36;;;;;;;0.10;0.10;;;;;;;;;;6193954;23;20023;-86
2022/07/23 06:43:02;;;;;;;0.10;0.10;;;;;;;;;;6244118;23;20012;-86
2022/07/23 06:45:28;;;;;;;0.10;0.10;;;;;;;;;;6218632;23;20012;-85
2022/07/23 06:47:53;;;;;;;0.30;0.30;;;;;;;;;;6218693;23;20108;-86
2022/07/23 06:50:19;;;;;;;0.20;0.20;;;;;;;;;;6219032;23;20095;-86
2022/07/23 06:52:45;;;;;;;0.30;0.30;;;;;;;;;;6218595;23;20016;-86
2022/07/23 06:55:11;;;;;;;0.10;0.10;;;;;;;;;;6218901;23;20027;-86
2022/07/23 06:57:37;;;;;;;0.20;0.20;;;;;;;;;;6218583;23;20008;-86
2022/07/23 07:00:04;;;;;;;0.20;0.20;;;;;;;;;;6193472;23;20062;-85
2022/07/23 07:02:30;;;;;;;0.20;0.20;;;;;;;;;;6193705;23;20058;-85
2022/07/23 07:04:56;;;;;;;0.20;0.20;;;;;;;;;;6193583;23;20012;-85
2022/07/23 07:07:22;;;;;;;0.10;0.10;;;;;;;;;;6218757;23;20016;-85
2022/07/23 07:09:48;;;;;;;0.10;0.10;;;;;;;;;;6243760;23;20315;-86
2022/07/23 07:12:14;;;;;;;0.10;0.10;;;;;;;;;;6218320;23;20016;-88
2022/07/23 07:14:40;;;;;;;0.20;0.20;;;;;;;;;;6193041;23;20015;-85
2022/07/23 07:17:06;;;;;;;0.22;0.22;;;;;;;;;;6243711;23;20012;-85
2022/07/23 07:19:32;;;;;;;0.10;0.10;;;;;;;;;;6218302;23;20413;-85
2022/07/23 07:21:58;;;;;;;0.10;0.10;;;;;;;;;;6218323;23;20054;-85
2022/07/23 07:24:24;;;;;;;0.20;0.20;;;;;;;;;;6218791;23;20071;-85
2022/07/23 07:26:50;;;;;;;0.40;0.40;;;;;;;;;;6193705;23;20378;-87
2022/07/23 07:29:16;;;;;;;0.10;0.10;;;;;;;;;;6218132;23;20345;-85
2022/07/23 07:31:42;;;;;;;0.10;0.10;;;;;;;;;;6218236;23;20012;-85
2022/07/23 07:34:08;;;;;;;0.10;0.10;;;;;;;;;;6218157;23;20008;-85
2022/07/23 07:36:36;;;;;;;0.65;0.32;;;;;;;;;;6218237;23;20091;-85
2022/07/23 07:39:02;;;;;;;0.17;0.17;;;;;;;;;;6193715;23;20015;-85
2022/07/23 07:41:28;;;;;;;0.10;0.10;;;;;;;;;;6217929;23;20020;-86
2022/07/23 07:43:54;;;;;;;0.10;0.10;;;;;;;;;;6218226;23;20012;-86
2022/07/23 07:46:22;;;;;;;0.17;0.17;;;;;;;;;;6193761;23;20012;-85
2022/07/23 07:48:48;;;;;;;0.20;0.20;;;;;;;;;;6218077;23;20012;-85
2022/07/23 07:51:14;;;;;;;0.20;0.20;;;;;;;;;;6192892;23;20055;-85
2022/07/23 07:53:40;;;;;;;0.10;0.10;;;;;;;;;;6193284;23;20341;-86
2022/07/23 07:56:06;;;;;;;0.10;0.10;;;;;;;;;;6193116;23;20074;-85
2022/07/23 07:58:32;;;;;;;0.10;0.10;;;;;;;;;;6194306;23;20012;-85
2022/07/23 08:00:58;;;;;;;0.10;0.10;;;;;;;;;;6246828;23;20019;-85
2022/07/23 08:03:24;;;;;;;0.10;0.10;;;;;;;;;;6195186;23;20023;-85
2022/07/23 08:05:50;;;;;;;0.10;0.10;;;;;;;;;;6195433;23;20059;-85
2022/07/23 08:08:16;;;;;;;0.10;0.10;;;;;;;;;;6221603;23;20389;-85
2022/07/23 08:10:43;;;;;;;0.10;0.10;;;;;;;;;;6218427;23;20012;-85
2022/07/23 08:13:11;;;;;;;0.10;0.10;;;;;;;;;;6193592;23;20015;-85
2022/07/23 08:15:37;;;;;;;0.10;0.10;;;;;;;;;;6193779;23;20012;-85
2022/07/23 08:18:03;;;;;;;0.10;0.10;;;;;;;;;;6218663;23;20012;-89
2022/07/23 08:20:29;;;;;;;0.10;0.10;;;;;;;;;;6218424;23;20091;-88
2022/07/23 08:22:56;;;;;;;0.20;0.20;;;;;;;;;;6218455;23;20020;-89
2022/07/23 08:25:32;;;;;;;0.10;0.10;;;;;;;;;;6193463;23;20016;-88
2022/07/23 08:27:58;;;;;;;0.10;0.10;;;;;;;;;;6219425;23;20008;-89
2022/07/23 08:30:24;;;;;;;0.10;0.10;;;;;;;;;;6193699;23;20012;-88
2022/07/23 08:32:51;;;;;;;0.10;0.10;;;;;;;;;;6194604;23;20016;-87
2022/07/23 08:35:18;;;;;;;0.10;0.10;;;;;;;;;;6193353;23;20012;-87
2022/07/23 08:37:44;;;;;;;0.10;0.10;;;;;;;;;;6193314;23;20055;-87
2022/07/23 08:40:10;;;;;;;0.10;0.10;;;;;;;;;;6192567;23;20016;-87
2022/07/23 08:42:36;;;;;;;0.10;0.10;;;;;;;;;;6192956;23;20020;-86
2022/07/23 08:45:03;;;;;;;0.20;0.20;;;;;;;;;;6192955;23;20012;-87
2022/07/23 08:47:29;;;;;;;0.20;0.20;;;;;;;;;;6217959;23;20016;-87
2022/07/23 08:49:55;;;;;;;0.10;0.10;;;;;;;;;;6217854;23;20526;-87
2022/07/23 08:52:21;;;;;;;0.10;0.10;;;;;;;;;;6193135;23;20013;-87
2022/07/23 08:54:47;;;;;;;0.10;0.10;;;;;;;;;;6192875;23;20066;-86
2022/07/23 08:57:13;;;;;;;0.10;0.10;;;;;;;;;;6217971;23;20020;-86
2022/07/23 08:59:39;;;;;;;0.10;0.10;;;;;;;;;;6192815;23;20012;-86
2022/07/23 09:02:05;;;;;;;0.10;0.10;;;;;;;;;;6192809;23;20019;-90
2022/07/23 09:04:31;;;;;;;0.10;0.10;;;;;;;;;;6192658;23;20008;-91
2022/07/23 09:06:57;;;;;;;0.10;0.10;;;;;;;;;;6192962;23;20023;-90
2022/07/23 09:09:25;;;;;;;0.20;0.20;;;;;;;;;;6193020;23;20016;-88
2022/07/23 09:12:06;;;;;;;0.20;0.20;;;;;;;;;;6193635;23;20020;-93
2022/07/23 09:14:38;;;;;;;0.10;0.10;;;;;;;;;;6193737;23;20087;-89
2022/07/23 09:17:10;;;;;;;0.10;0.10;;;;;;;;;;6217855;23;20083;-90
2022/07/23 09:19:36;;;;;;;0.10;0.10;;;;;;;;;;6217560;23;20079;-89
2022/07/23 09:22:18;;;;;;;0.10;0.10;;;;;;;;;;6192726;23;20015;-88
2022/07/23 09:25:03;;;;;;;0.10;0.10;;;;;;;;;;6192938;23;20047;-89
2022/07/23 09:27:48;;;;;;;0.10;0.10;;;;;;;;;;6217508;23;20008;-88
2022/07/23 09:30:14;;;;;;;0.10;0.10;;;;;;;;;;6217234;23;20075;-88
2022/07/23 09:32:40;;;;;;;0.10;0.10;;;;;;;;;;6192675;23;20045;-88
2022/07/23 09:35:06;;;;;;;0.20;0.20;;;;;;;;;;6192583;23;20012;-89
2022/07/23 09:37:32;;;;;;;0.13;0.13;;;;;;;;;;6193967;23;20019;-87
2022/07/23 09:40:05;;;;;;;0.20;0.20;;;;;;;;;;6244490;23;20020;-88
2022/07/23 09:42:31;;;;;;;0.10;0.10;;;;;;;;;;6194323;23;20056;-88
2022/07/23 09:44:57;;;;;;;0.10;0.10;;;;;;;;;;6194326;23;20016;-88
2022/07/23 09:47:24;;;;;;;0.20;0.20;;;;;;;;;;6194332;23;20083;-88
2022/07/23 09:50:05;;;;;;;0.20;0.20;;;;;;;;;;6194403;23;20392;-90
2022/07/23 09:52:32;;;;;;;0.10;0.10;;;;;;;;;;6220091;23;20012;-89
2022/07/23 09:55:03;;;;;;;0.10;0.10;;;;;;;;;;6219300;23;20030;-86
2022/07/23 09:57:29;;;;;;;0.10;0.10;;;;;;;;;;6194877;23;20008;-85
2022/07/23 09:59:56;;;;;;;0.10;0.10;;;;;;;;;;6194266;23;20097;-85
2022/07/23 10:02:23;;;;;;;0.10;0.10;;;;;;;;;;6194133;23;20338;-85
2022/07/23 10:04:49;;;;;;;0.20;0.20;;;;;;;;;;6194265;23;20012;-86
2022/07/23 10:07:15;;;;;;;0.10;0.10;;;;;;;;;;6194239;23;20026;-86
2022/07/23 10:09:41;;;;;;;0.20;0.20;;;;;;;;;;6194002;23;20043;-86
2022/07/23 10:12:16;;;;;;;0.10;0.10;;;;;;;;;;6194173;23;20047;-86
2022/07/23 10:14:42;;;;;;;0.15;0.15;;;;;;;;;;6195116;23;20154;-86
2022/07/23 10:17:08;;;;;;;0.10;0.10;;;;;;;;;;6218940;23;20008;-85
2022/07/23 10:19:34;;;;;;;0.85;0.30;;;;;;;;;;6219019;23;20016;-86
2022/07/23 10:22:01;;;;;;;0.10;0.10;;;;;;;;;;6219046;23;20020;-86
2022/07/23 10:24:33;;;;;;;0.10;0.10;;;;;;;;;;6193939;23;20099;-86
2022/07/23 10:27:03;;;;;;;0.10;0.10;;;;;;;;;;6219214;23;20315;-85
2022/07/23 10:29:36;;;;;;;0.10;0.10;;;;;;;;;;6193820;23;20342;-86
2022/07/23 10:32:03;;;;;;;0.10;0.10;;;;;;;;;;6194129;23;20069;-86
2022/07/23 10:34:32;;;;;;;0.10;0.10;;;;;;;;;;6193796;23;20016;-86
2022/07/23 10:37:05;;;;;;;0.22;0.20;;;;;;;;;;6193693;23;20410;-86
2022/07/23 10:39:31;;;;;;;0.10;0.10;;;;;;;;;;6193635;23;20092;-87
2022/07/23 10:42:11;;;;;;;0.20;0.20;;;;;;;;;;6196136;23;20310;-91
2022/07/23 10:44:44;;;;;;;0.10;0.10;;;;;;;;;;6194069;23;20012;-91
2022/07/23 10:49:40;;;;;;;0.10;0.10;;;;;;;;;;6193989;23;20020;-92
2022/07/23 10:52:15;;;;;;;0.10;0.10;;;;;;;;;;6194791;23;20430;-92
2022/07/23 10:55:09;;;;;;;0.10;0.10;;;;;;;;;;6218556;23;20031;-90
2022/07/23 10:57:47;;;;;;;0.10;0.10;;;;;;;;;;6158528;23;20532;-89
2022/07/23 11:00:17;;;;;;;0.10;0.10;;;;;;;;;;6218358;23;20012;-90
2022/07/23 11:02:47;;;;;;;0.10;0.10;;;;;;;;;;6194252;23;20066;-89
2022/07/23 11:05:50;;;;;;;0.10;0.10;;;;;;;;;;6193607;23;20464;-94
2022/07/23 11:08:21;;;;;;;0.10;0.10;;;;;;;;;;6100816;23;20024;-89
2022/07/23 11:10:48;;;;;;;0.10;0.10;;;;;;;;;;6198350;23;20012;-90
2022/07/23 11:13:26;;;;;;;0.10;0.10;;;;;;;;;;6193794;23;20018;-96
2022/07/23 11:16:01;;;;;;;0.10;0.10;;;;;;;;;;6218424;23;20012;-91
2022/07/23 11:18:48;;;;;;;0.10;0.10;;;;;;;;;;6218312;23;20151;-90
2022/07/23 11:21:28;;;;;;;0.10;0.10;;;;;;;;;;6213782;23;20437;-91
2022/07/23 11:24:00;;;;;;;0.10;0.10;;;;;;;;;;6218329;23;20012;-92
2022/07/23 11:26:41;;;;;;;0.40;0.20;;;;;;;;;;6217910;23;20016;-91
2022/07/23 11:29:30;;;;;;;0.10;0.10;;;;;;;;;;6218280;23;20054;-91
2022/07/23 11:32:16;;;;;;;0.20;0.20;;;;;;;;;;6217964;23;20259;-91
2022/07/23 11:34:43;;;;;;;0.10;0.10;;;;;;;;;;6217733;23;20405;-92
2022/07/23 11:37:13;;;;;;;0.25;0.25;;;;;;;;;;6193508;23;20012;-92
2022/07/23 11:39:39;;;;;;;0.20;0.20;;;;;;;;;;6193038;23;20113;-92
2022/07/23 11:42:05;;;;;;;0.10;0.10;;;;;;;;;;6193247;23;20020;-91
2022/07/23 11:44:32;;;;;;;0.65;0.65;;;;;;;;;;6192948;23;20012;-89
2022/07/23 11:47:05;;;;;;;0.10;0.10;;;;;;;;;;6192961;23;20030;-90
2022/07/23 11:49:32;;;;;;;0.20;0.20;;;;;;;;;;6192752;23;20067;-90
2022/07/23 11:52:04;;;;;;;0.20;0.20;;;;;;;;;;6192835;23;20023;-91
2022/07/23 11:54:30;;;;;;;0.20;0.20;;;;;;;;;;6218236;23;20015;-91
2022/07/23 11:57:04;;;;;;;0.10;0.10;;;;;;;;;;6193427;23;20015;-94
2022/07/23 11:59:31;;;;;;;0.10;0.10;;;;;;;;;;6217788;23;20481;-89
2022/07/23 12:01:58;;;;;;;0.10;0.10;;;;;;;;;;6192846;23;20427;-87
2022/07/23 12:04:25;;;;;;;0.10;0.10;;;;;;;;;;6192928;23;20023;-87
2022/07/23 12:06:51;;;;;;;0.10;0.10;;;;;;;;;;6192979;23;20069;-86
2022/07/23 12:09:17;;;;;;;0.20;0.20;;;;;;;;;;6192825;23;20090;-86
2022/07/23 12:11:59;;;;;;;0.10;0.10;;;;;;;;;;6192838;23;20016;-85
2022/07/23 12:14:25;;;;;;;0.20;0.20;;;;;;;;;;6192886;23;20094;-86
2022/07/23 12:17:12;;;;;;;0.10;0.10;;;;;;;;;;6192759;23;20016;-86
2022/07/23 12:19:38;;;;;;;0.10;0.10;;;;;;;;;;6217932;23;20094;-87
2022/07/23 12:22:04;;;;;;;0.10;0.10;;;;;;;;;;6218032;23;20363;-90
2022/07/23 12:24:30;;;;;;;0.10;0.10;;;;;;;;;;6192756;23;20416;-87
2022/07/23 12:27:10;;;;;;;0.13;0.13;;;;;;;;;;6192902;23;20233;-86
2022/07/23 12:29:36;;;;;;;0.10;0.10;;;;;;;;;;6192881;23;20019;-85
2022/07/23 12:32:02;;;;;;;0.20;0.20;;;;;;;;;;6217545;23;20016;-84
2022/07/23 12:34:28;;;;;;;0.10;0.10;;;;;;;;;;6244420;23;20438;-83
2022/07/23 12:36:54;;;;;;;0.10;0.10;;;;;;;;;;6217577;23;20043;-85
2022/07/23 12:39:30;;;;;;;0.20;0.20;;;;;;;;;;6192380;23;20323;-85
2022/07/23 12:41:56;;;;;;;0.15;0.15;;;;;;;;;;6192824;23;20458;-85
2022/07/23 12:44:22;;;;;;;0.20;0.20;;;;;;;;;;6217599;23;20016;-85
2022/07/23 12:46:54;;;;;;;0.10;0.10;;;;;;;;;;6192976;23;20012;-85
2022/07/23 12:49:27;;;;;;;0.10;0.10;;;;;;;;;;6217570;23;20138;-85
2022/07/23 12:51:53;;;;;;;0.10;0.10;;;;;;;;;;6217804;23;20442;-86
2022/07/23 12:54:19;;;;;;;0.10;0.10;;;;;;;;;;6192777;23;20015;-85
2022/07/23 12:56:45;;;;;;;0.10;0.10;;;;;;;;;;6192618;23;20087;-86
2022/07/23 12:59:15;;;;;;;0.20;0.20;;;;;;;;;;6192825;23;20012;-86
2022/07/23 13:01:48;;;;;;;0.10;0.10;;;;;;;;;;6217707;23;20091;-86
2022/07/23 13:04:23;;;;;;;0.20;0.20;;;;;;;;;;6193615;23;20338;-86
2022/07/23 13:06:53;;;;;;;0.10;0.10;;;;;;;;;;6192587;23;20083;-85
2022/07/23 13:09:20;;;;;;;0.10;0.10;;;;;;;;;;6192620;23;20080;-87
2022/07/23 13:11:47;;;;;;;0.10;0.10;;;;;;;;;;6192968;23;20070;-86
2022/07/23 13:14:13;;;;;;;0.10;0.10;;;;;;;;;;6194756;23;20022;-86
2022/07/23 13:16:40;;;;;;;0.10;0.10;;;;;;;;;;6194702;23;20012;-86
2022/07/23 13:19:06;;;;;;;0.10;0.10;;;;;;;;;;6246032;23;20062;-84
2022/07/23 13:21:32;;;;;;;0.10;0.10;;;;;;;;;;6219708;23;20016;-86
2022/07/23 13:23:58;;;;;;;0.10;0.10;;;;;;;;;;6195982;23;20023;-88
2022/07/23 13:26:24;;;;;;;0.10;0.10;;;;;;;;;;6196700;23;20016;-93
2022/07/23 13:28:50;;;;;;;0.20;0.20;;;;;;;;;;6196120;23;20027;-91
2022/07/23 13:31:16;;;;;;;0.10;0.10;;;;;;;;;;6194585;23;20318;-92
2022/07/23 13:33:42;;;;;;;0.10;0.10;;;;;;;;;;6195921;23;20019;-90
2022/07/23 13:36:08;;;;;;;0.10;0.10;;;;;;;;;;6194570;23;20008;-88
2022/07/23 13:38:34;;;;;;;0.10;0.10;;;;;;;;;;6218722;23;20012;-86
2022/07/23 13:41:02;;;;;;;0.10;0.10;;;;;;;;;;6219012;23;20054;-88
2022/07/23 13:43:28;;;;;;;0.10;0.10;;;;;;;;;;6219053;23;20047;-84
2022/07/23 13:45:54;;;;;;;0.10;0.10;;;;;;;;;;6194449;23;20152;-84
2022/07/23 13:48:20;;;;;;;0.20;0.20;;;;;;;;;;6194112;23;20346;-84
2022/07/23 13:50:46;;;;;;;0.10;0.10;;;;;;;;;;6194391;23;20016;-85
2022/07/23 13:53:14;;;;;;;0.10;0.10;;;;;;;;;;6219241;23;20170;-83
2022/07/23 13:55:40;;;;;;;0.20;0.20;;;;;;;;;;6194143;23;20484;-84
2022/07/23 13:58:06;;;;;;;0.10;0.10;;;;;;;;;;6218974;23;20014;-84
2022/07/23 14:00:32;;;;;;;0.10;0.10;;;;;;;;;;6218939;23;20087;-84
2022/07/23 14:02:58;;;;;;;0.10;0.10;;;;;;;;;;6218754;23;20008;-83
2022/07/23 14:05:24;;;;;;;0.10;0.10;;;;;;;;;;6193644;23;20446;-83
2022/07/23 14:07:51;;;;;;;0.20;0.20;;;;;;;;;;6194041;23;20030;-83
2022/07/23 14:10:17;;;;;;;0.10;0.10;;;;;;;;;;6218939;23;20082;-83
2022/07/23 14:12:44;;;;;;;0.10;0.10;;;;;;;;;;6219027;23;20022;-83
2022/07/23 14:15:10;;;;;;;0.10;0.10;;;;;;;;;;6194008;23;20091;-83
2022/07/23 14:17:36;;;;;;;0.10;0.10;;;;;;;;;;6245926;23;20015;-83
2022/07/23 14:20:03;;;;;;;0.10;0.10;;;;;;;;;;6193926;23;20054;-83
2022/07/23 14:22:29;;;;;;;0.10;0.10;;;;;;;;;;6193847;23;20022;-86
2022/07/23 14:24:57;;;;;;;0.20;0.20;;;;;;;;;;6195382;23;20020;-84
2022/07/23 14:27:23;;;;;;;0.20;0.20;;;;;;;;;;6246824;23;20511;-84
2022/07/23 14:29:49;;;;;;;0.13;0.13;;;;;;;;;;6218525;23;20020;-84
2022/07/23 14:32:15;;;;;;;0.10;0.10;;;;;;;;;;6193864;23;20386;-84
2022/07/23 14:34:41;;;;;;;0.10;0.10;;;;;;;;;;6219301;23;20462;-87
2022/07/23 14:37:07;;;;;;;0.10;0.10;;;;;;;;;;6218735;23;20016;-84
2022/07/23 14:39:33;;;;;;;0.10;0.10;;;;;;;;;;6193350;23;20016;-84
2022/07/23 14:41:59;;;;;;;0.20;0.20;;;;;;;;;;6218593;23;20031;-85
2022/07/23 14:44:25;;;;;;;0.20;0.20;;;;;;;;;;6193641;23;20082;-84
2022/07/23 14:46:51;;;;;;;0.10;0.10;;;;;;;;;;6192909;23;20341;-82